sensor_id;sensor_type;location;lat;lon;timestamp;temperature;humidity
17489;DHT22;8861;52.644;4.734;2023-10-08T00:02:05;18.10;99.90
17489;DHT22;8861;52.644;4.734;2023-10-08T00:04:32;18.10;99.90
17489;DHT22;8861;52.644;4.734;2023-10-08T00:07:04;18.10;99.90
17489;DHT22;8861;52.644;4.734;2023-10-08T00:09:33;18.10;99.90
17489;DHT22;8861;52.644;4.734;2023-10-08T00:12:02;18.10;99.90
17489;DHT22;8861;52.644;4.734;2023-10-08T00:14:30;18.00;99.90
17489;DHT22;8861;52.644;4.734;2023-10-08T00:16:58;18.00;99.90
17489;DHT22;8861;52.644;4.734;2023-10-08T00:19:26;18.00;99.90
17489;DHT22;8861;52.644;4.734;2023-10-08T00:21:59;18.00;99.90
17489;DHT22;8861;52.644;4.734;2023-10-08T00:24:33;18.00;99.90
17489;DHT22;8861;52.644;4.734;2023-10-08T00:27:00;17.90;99.90
17489;DHT22;8861;52.644;4.734;2023-10-08T00:29:32;17.90;99.90
17489;DHT22;8861;52.644;4.734;2023-10-08T00:31:59;17.90;99.90
17489;DHT22;8861;52.644;4.734;2023-10-08T00:34:37;17.90;99.90
17489;DHT22;8861;52.644;4.734;2023-10-08T00:37:07;17.90;99.90
17489;DHT22;8861;52.644;4.734;2023-10-08T00:39:37;17.90;99.90
17489;DHT22;8861;52.644;4.734;2023-10-08T00:42:06;17.80;99.90
17489;DHT22;8861;52.644;4.734;2023-10-08T00:44:34;17.90;99.90
17489;DHT22;8861;52.644;4.734;2023-10-08T00:47:07;17.90;99.90
17489;DHT22;8861;52.644;4.734;2023-10-08T00:49:37;17.90;99.90
17489;DHT22;8861;52.644;4.734;2023-10-08T00:52:20;17.90;99.90
17489;DHT22;8861;52.644;4.734;2023-10-08T00:55:03;17.90;99.90
17489;DHT22;8861;52.644;4.734;2023-10-08T00:57:40;18.00;99.90
17489;DHT22;8861;52.644;4.734;2023-10-08T01:00:13;18.00;99.90
17489;DHT22;8861;52.644;4.734;2023-10-08T01:02:49;18.00;99.90
17489;DHT22;8861;52.644;4.734;2023-10-08T01:05:25;18.00;99.90
17489;DHT22;8861;52.644;4.734;2023-10-08T01:08:07;18.00;99.90
17489;DHT22;8861;52.644;4.734;2023-10-08T01:10:39;18.10;99.90
17489;DHT22;8861;52.644;4.734;2023-10-08T01:13:09;18.00;99.90
17489;DHT22;8861;52.644;4.734;2023-10-08T01:15:40;18.00;99.90
17489;DHT22;8861;52.644;4.734;2023-10-08T01:18:10;18.00;99.90
17489;DHT22;8861;52.644;4.734;2023-10-08T01:20:41;18.00;99.90
17489;DHT22;8861;52.644;4.734;2023-10-08T01:23:19;18.00;99.90
17489;DHT22;8861;52.644;4.734;2023-10-08T01:25:49;18.00;99.90
17489;DHT22;8861;52.644;4.734;2023-10-08T01:28:18;18.00;99.90
17489;DHT22;8861;52.644;4.734;2023-10-08T01:30:51;18.00;99.90
17489;DHT22;8861;52.644;4.734;2023-10-08T01:33:19;18.00;99.90
17489;DHT22;8861;52.644;4.734;2023-10-08T01:35:54;17.90;99.90
17489;DHT22;8861;52.644;4.734;2023-10-08T01:38:28;17.90;99.90
17489;DHT22;8861;52.644;4.734;2023-10-08T01:40:56;17.70;99.90
17489;DHT22;8861;52.644;4.734;2023-10-08T01:43:28;17.70;99.90
17489;DHT22;8861;52.644;4.734;2023-10-08T01:45:55;17.50;99.90
17489;DHT22;8861;52.644;4.734;2023-10-08T01:48:22;17.40;99.90
17489;DHT22;8861;52.644;4.734;2023-10-08T01:50:54;17.30;99.90
17489;DHT22;8861;52.644;4.734;2023-10-08T01:53:21;17.20;99.90
17489;DHT22;8861;52.644;4.734;2023-10-08T01:55:49;17.10;99.90
17489;DHT22;8861;52.644;4.734;2023-10-08T01:58:20;17.10;99.90
17489;DHT22;8861;52.644;4.734;2023-10-08T02:00:49;17.00;99.90
17489;DHT22;8861;52.644;4.734;2023-10-08T02:03:18;17.00;99.90
17489;DHT22;8861;52.644;4.734;2023-10-08T02:05:46;16.90;99.90
17489;DHT22;8861;52.644;4.734;2023-10-08T02:08:14;16.90;99.90
17489;DHT22;8861;52.644;4.734;2023-10-08T02:10:43;16.90;99.90
17489;DHT22;8861;52.644;4.734;2023-10-08T02:13:14;16.80;99.90
17489;DHT22;8861;52.644;4.734;2023-10-08T02:15:44;16.80;99.90
17489;DHT22;8861;52.644;4.734;2023-10-08T02:18:13;16.80;99.90
17489;DHT22;8861;52.644;4.734;2023-10-08T02:20:40;16.70;99.90
17489;DHT22;8861;52.644;4.734;2023-10-08T02:23:07;16.60;99.90
17489;DHT22;8861;52.644;4.734;2023-10-08T02:25:37;16.50;99.90
17489;DHT22;8861;52.644;4.734;2023-10-08T02:28:06;16.40;99.90
17489;DHT22;8861;52.644;4.734;2023-10-08T02:30:37;16.30;99.90
17489;DHT22;8861;52.644;4.734;2023-10-08T02:33:05;16.20;99.90
17489;DHT22;8861;52.644;4.734;2023-10-08T02:35:39;16.10;99.90
17489;DHT22;8861;52.644;4.734;2023-10-08T02:38:08;16.10;99.90
17489;DHT22;8861;52.644;4.734;2023-10-08T02:40:37;16.00;99.90
17489;DHT22;8861;52.644;4.734;2023-10-08T02:43:10;16.00;99.90
17489;DHT22;8861;52.644;4.734;2023-10-08T02:45:39;15.90;99.90
17489;DHT22;8861;52.644;4.734;2023-10-08T02:48:07;15.90;99.90
17489;DHT22;8861;52.644;4.734;2023-10-08T02:50:38;15.90;99.90
17489;DHT22;8861;52.644;4.734;2023-10-08T02:53:06;15.80;99.90
17489;DHT22;8861;52.644;4.734;2023-10-08T02:55:37;15.80;99.90
17489;DHT22;8861;52.644;4.734;2023-10-08T02:58:09;15.70;99.90
17489;DHT22;8861;52.644;4.734;2023-10-08T03:00:41;15.70;99.90
17489;DHT22;8861;52.644;4.734;2023-10-08T03:03:08;15.70;99.90
17489;DHT22;8861;52.644;4.734;2023-10-08T03:05:43;15.60;99.90
17489;DHT22;8861;52.644;4.734;2023-10-08T03:08:12;15.70;99.90
17489;DHT22;8861;52.644;4.734;2023-10-08T03:10:39;15.70;99.90
17489;DHT22;8861;52.644;4.734;2023-10-08T03:13:07;15.70;99.90
17489;DHT22;8861;52.644;4.734;2023-10-08T03:15:36;15.70;99.90
17489;DHT22;8861;52.644;4.734;2023-10-08T03:18:13;15.70;99.90
17489;DHT22;8861;52.644;4.734;2023-10-08T03:20:41;15.60;99.90
17489;DHT22;8861;52.644;4.734;2023-10-08T03:23:14;15.60;99.90
17489;DHT22;8861;52.644;4.734;2023-10-08T03:25:52;15.60;99.90
17489;DHT22;8861;52.644;4.734;2023-10-08T03:28:24;15.50;99.90
17489;DHT22;8861;52.644;4.734;2023-10-08T03:30:53;15.40;99.90
17489;DHT22;8861;52.644;4.734;2023-10-08T03:33:30;15.40;99.90
17489;DHT22;8861;52.644;4.734;2023-10-08T03:36:00;15.30;99.90
17489;DHT22;8861;52.644;4.734;2023-10-08T03:38:37;15.20;99.90
17489;DHT22;8861;52.644;4.734;2023-10-08T03:41:11;15.20;99.90
17489;DHT22;8861;52.644;4.734;2023-10-08T03:43:44;15.20;99.90
17489;DHT22;8861;52.644;4.734;2023-10-08T03:46:19;15.30;99.90
17489;DHT22;8861;52.644;4.734;2023-10-08T03:48:48;15.30;99.90
17489;DHT22;8861;52.644;4.734;2023-10-08T03:51:17;15.30;99.90
17489;DHT22;8861;52.644;4.734;2023-10-08T03:53:47;15.30;99.90
17489;DHT22;8861;52.644;4.734;2023-10-08T03:56:41;15.30;99.90
17489;DHT22;8861;52.644;4.734;2023-10-08T03:59:11;15.30;99.90
17489;DHT22;8861;52.644;4.734;2023-10-08T04:01:40;15.30;99.90
17489;DHT22;8861;52.644;4.734;2023-10-08T04:04:09;15.30;99.90
17489;DHT22;8861;52.644;4.734;2023-10-08T04:06:40;15.30;99.90
17489;DHT22;8861;52.644;4.734;2023-10-08T04:09:14;15.30;99.90
17489;DHT22;8861;52.644;4.734;2023-10-08T04:11:50;15.30;99.90
17489;DHT22;8861;52.644;4.734;2023-10-08T04:14:20;15.30;99.90
17489;DHT22;8861;52.644;4.734;2023-10-08T04:16:47;15.30;99.90
17489;DHT22;8861;52.644;4.734;2023-10-08T04:19:19;15.30;99.90
17489;DHT22;8861;52.644;4.734;2023-10-08T04:21:51;15.30;99.90
17489;DHT22;8861;52.644;4.734;2023-10-08T04:24:21;15.30;99.90
17489;DHT22;8861;52.644;4.734;2023-10-08T04:26:55;15.30;99.90
17489;DHT22;8861;52.644;4.734;2023-10-08T04:29:23;15.30;99.90
17489;DHT22;8861;52.644;4.734;2023-10-08T04:31:51;15.30;99.90
17489;DHT22;8861;52.644;4.734;2023-10-08T04:34:29;15.30;99.90
17489;DHT22;8861;52.644;4.734;2023-10-08T04:36:58;15.30;99.90
17489;DHT22;8861;52.644;4.734;2023-10-08T04:39:27;15.30;99.90
17489;DHT22;8861;52.644;4.734;2023-10-08T04:41:59;15.30;99.90
17489;DHT22;8861;52.644;4.734;2023-10-08T04:44:32;15.30;99.90
17489;DHT22;8861;52.644;4.734;2023-10-08T04:46:59;15.30;99.90
17489;DHT22;8861;52.644;4.734;2023-10-08T04:49:33;15.30;99.90
17489;DHT22;8861;52.644;4.734;2023-10-08T04:52:05;15.30;99.90
17489;DHT22;8861;52.644;4.734;2023-10-08T04:54:34;15.30;99.90
17489;DHT22;8861;52.644;4.734;2023-10-08T04:57:06;15.30;99.90
17489;DHT22;8861;52.644;4.734;2023-10-08T04:59:41;15.30;99.90
17489;DHT22;8861;52.644;4.734;2023-10-08T05:02:09;15.40;99.90
17489;DHT22;8861;52.644;4.734;2023-10-08T05:04:49;15.40;99.90
17489;DHT22;8861;52.644;4.734;2023-10-08T05:07:36;15.40;99.90
17489;DHT22;8861;52.644;4.734;2023-10-08T05:10:17;15.40;99.90
17489;DHT22;8861;52.644;4.734;2023-10-08T05:13:10;15.30;99.90
17489;DHT22;8861;52.644;4.734;2023-10-08T05:15:42;15.30;99.90
17489;DHT22;8861;52.644;4.734;2023-10-08T05:18:28;15.30;99.90
17489;DHT22;8861;52.644;4.734;2023-10-08T05:21:15;15.30;99.90
17489;DHT22;8861;52.644;4.734;2023-10-08T05:23:51;15.30;99.90
17489;DHT22;8861;52.644;4.734;2023-10-08T05:26:38;15.30;99.90
17489;DHT22;8861;52.644;4.734;2023-10-08T05:29:11;15.30;99.90
17489;DHT22;8861;52.644;4.734;2023-10-08T05:32:15;15.30;99.90
17489;DHT22;8861;52.644;4.734;2023-10-08T05:35:09;15.20;99.90
17489;DHT22;8861;52.644;4.734;2023-10-08T05:37:58;15.20;99.90
17489;DHT22;8861;52.644;4.734;2023-10-08T05:40:39;15.10;99.90
17489;DHT22;8861;52.644;4.734;2023-10-08T05:43:31;15.10;99.90
17489;DHT22;8861;52.644;4.734;2023-10-08T05:46:35;15.10;99.90
17489;DHT22;8861;52.644;4.734;2023-10-08T05:49:23;15.20;99.90
17489;DHT22;8861;52.644;4.734;2023-10-08T05:52:07;15.10;99.90
17489;DHT22;8861;52.644;4.734;2023-10-08T05:54:49;15.10;99.90
17489;DHT22;8861;52.644;4.734;2023-10-08T05:57:40;15.20;99.90
17489;DHT22;8861;52.644;4.734;2023-10-08T06:00:12;15.10;99.90
17489;DHT22;8861;52.644;4.734;2023-10-08T06:02:57;15.10;99.90
17489;DHT22;8861;52.644;4.734;2023-10-08T06:05:44;15.10;99.90
17489;DHT22;8861;52.644;4.734;2023-10-08T06:08:13;15.10;99.90
17489;DHT22;8861;52.644;4.734;2023-10-08T06:10:42;15.10;99.90
17489;DHT22;8861;52.644;4.734;2023-10-08T06:13:11;15.10;99.90
17489;DHT22;8861;52.644;4.734;2023-10-08T06:15:43;15.10;99.90
17489;DHT22;8861;52.644;4.734;2023-10-08T06:18:18;15.10;99.90
17489;DHT22;8861;52.644;4.734;2023-10-08T06:20:44;15.10;99.90
17489;DHT22;8861;52.644;4.734;2023-10-08T06:23:12;15.20;99.90
17489;DHT22;8861;52.644;4.734;2023-10-08T06:25:42;15.20;99.90
17489;DHT22;8861;52.644;4.734;2023-10-08T06:28:13;15.30;99.90
17489;DHT22;8861;52.644;4.734;2023-10-08T06:30:44;15.20;99.90
17489;DHT22;8861;52.644;4.734;2023-10-08T06:33:11;15.20;99.90
17489;DHT22;8861;52.644;4.734;2023-10-08T06:35:39;15.20;99.90
17489;DHT22;8861;52.644;4.734;2023-10-08T06:38:10;15.20;99.90
17489;DHT22;8861;52.644;4.734;2023-10-08T06:40:42;15.30;99.90
17489;DHT22;8861;52.644;4.734;2023-10-08T06:43:10;15.30;99.90
17489;DHT22;8861;52.644;4.734;2023-10-08T06:45:51;15.40;99.90
17489;DHT22;8861;52.644;4.734;2023-10-08T06:48:19;15.40;99.90
17489;DHT22;8861;52.644;4.734;2023-10-08T06:50:48;15.50;99.90
17489;DHT22;8861;52.644;4.734;2023-10-08T06:53:16;15.50;99.90
17489;DHT22;8861;52.644;4.734;2023-10-08T06:55:45;15.50;99.90
17489;DHT22;8861;52.644;4.734;2023-10-08T06:58:13;15.50;99.90
17489;DHT22;8861;52.644;4.734;2023-10-08T07:00:42;15.50;99.90
17489;DHT22;8861;52.644;4.734;2023-10-08T07:03:15;15.50;99.90
17489;DHT22;8861;52.644;4.734;2023-10-08T07:05:44;15.50;99.90
17489;DHT22;8861;52.644;4.734;2023-10-08T07:08:21;15.60;99.90
17489;DHT22;8861;52.644;4.734;2023-10-08T07:10:50;15.60;99.90
17489;DHT22;8861;52.644;4.734;2023-10-08T07:13:18;15.60;99.90
17489;DHT22;8861;52.644;4.734;2023-10-08T07:15:48;15.60;99.90
17489;DHT22;8861;52.644;4.734;2023-10-08T07:18:16;15.50;99.90
17489;DHT22;8861;52.644;4.734;2023-10-08T07:20:51;15.50;99.90
17489;DHT22;8861;52.644;4.734;2023-10-08T07:23:20;15.50;99.90
17489;DHT22;8861;52.644;4.734;2023-10-08T07:25:54;15.60;99.90
17489;DHT22;8861;52.644;4.734;2023-10-08T07:28:25;15.60;99.90
17489;DHT22;8861;52.644;4.734;2023-10-08T07:30:52;15.70;99.90
17489;DHT22;8861;52.644;4.734;2023-10-08T07:33:21;15.70;99.90
17489;DHT22;8861;52.644;4.734;2023-10-08T07:35:51;15.80;99.90
17489;DHT22;8861;52.644;4.734;2023-10-08T07:38:25;15.90;99.90
17489;DHT22;8861;52.644;4.734;2023-10-08T07:40:56;16.00;99.90
17489;DHT22;8861;52.644;4.734;2023-10-08T07:43:23;16.00;99.90
17489;DHT22;8861;52.644;4.734;2023-10-08T07:45:50;16.00;99.90
17489;DHT22;8861;52.644;4.734;2023-10-08T07:48:20;16.10;99.90
17489;DHT22;8861;52.644;4.734;2023-10-08T07:50:50;16.10;99.90
17489;DHT22;8861;52.644;4.734;2023-10-08T07:53:17;16.10;99.90
17489;DHT22;8861;52.644;4.734;2023-10-08T07:55:47;16.10;99.90
17489;DHT22;8861;52.644;4.734;2023-10-08T07:58:18;16.10;99.90
17489;DHT22;8861;52.644;4.734;2023-10-08T08:00:46;16.10;99.90
17489;DHT22;8861;52.644;4.734;2023-10-08T08:03:20;16.10;99.90
17489;DHT22;8861;52.644;4.734;2023-10-08T08:05:48;16.20;99.90
17489;DHT22;8861;52.644;4.734;2023-10-08T08:08:20;16.30;99.90
17489;DHT22;8861;52.644;4.734;2023-10-08T08:10:49;16.30;99.90
17489;DHT22;8861;52.644;4.734;2023-10-08T08:13:24;16.40;99.90
17489;DHT22;8861;52.644;4.734;2023-10-08T08:15:55;16.50;99.90
17489;DHT22;8861;52.644;4.734;2023-10-08T08:18:25;16.60;99.90
17489;DHT22;8861;52.644;4.734;2023-10-08T08:21:00;16.60;99.90
17489;DHT22;8861;52.644;4.734;2023-10-08T08:23:29;16.70;99.90
17489;DHT22;8861;52.644;4.734;2023-10-08T08:25:57;16.70;99.90
17489;DHT22;8861;52.644;4.734;2023-10-08T08:28:38;16.70;99.90
17489;DHT22;8861;52.644;4.734;2023-10-08T08:31:06;16.70;99.90
17489;DHT22;8861;52.644;4.734;2023-10-08T08:33:43;16.80;99.90
17489;DHT22;8861;52.644;4.734;2023-10-08T08:36:26;16.90;99.90
17489;DHT22;8861;52.644;4.734;2023-10-08T08:38:54;16.90;99.90
17489;DHT22;8861;52.644;4.734;2023-10-08T08:41:22;16.90;99.90
17489;DHT22;8861;52.644;4.734;2023-10-08T08:43:51;17.00;99.90
17489;DHT22;8861;52.644;4.734;2023-10-08T08:46:32;17.00;99.90
17489;DHT22;8861;52.644;4.734;2023-10-08T08:49:02;17.00;99.90
17489;DHT22;8861;52.644;4.734;2023-10-08T08:51:31;16.90;99.90
17489;DHT22;8861;52.644;4.734;2023-10-08T08:53:58;16.90;99.90
17489;DHT22;8861;52.644;4.734;2023-10-08T08:56:26;17.00;99.90
17489;DHT22;8861;52.644;4.734;2023-10-08T08:58:57;17.00;99.90
17489;DHT22;8861;52.644;4.734;2023-10-08T09:01:27;17.00;99.90
17489;DHT22;8861;52.644;4.734;2023-10-08T09:03:59;17.00;99.90
17489;DHT22;8861;52.644;4.734;2023-10-08T09:06:27;16.90;99.90
17489;DHT22;8861;52.644;4.734;2023-10-08T09:08:54;16.90;99.90
17489;DHT22;8861;52.644;4.734;2023-10-08T09:11:38;16.90;99.90
17489;DHT22;8861;52.644;4.734;2023-10-08T09:14:09;16.90;99.90
17489;DHT22;8861;52.644;4.734;2023-10-08T09:16:37;16.90;99.90
17489;DHT22;8861;52.644;4.734;2023-10-08T09:19:04;16.90;99.90
17489;DHT22;8861;52.644;4.734;2023-10-08T09:21:37;17.00;99.90
17489;DHT22;8861;52.644;4.734;2023-10-08T09:24:05;17.20;99.90
17489;DHT22;8861;52.644;4.734;2023-10-08T09:26:37;17.30;99.90
17489;DHT22;8861;52.644;4.734;2023-10-08T09:29:05;17.40;99.90
17489;DHT22;8861;52.644;4.734;2023-10-08T09:31:36;17.40;99.90
17489;DHT22;8861;52.644;4.734;2023-10-08T09:34:03;17.50;99.90
17489;DHT22;8861;52.644;4.734;2023-10-08T09:36:31;17.60;99.90
17489;DHT22;8861;52.644;4.734;2023-10-08T09:39:00;17.70;99.90
17489;DHT22;8861;52.644;4.734;2023-10-08T09:41:31;17.90;99.90
17489;DHT22;8861;52.644;4.734;2023-10-08T09:43:59;18.00;99.90
17489;DHT22;8861;52.644;4.734;2023-10-08T09:46:29;18.10;99.90
17489;DHT22;8861;52.644;4.734;2023-10-08T09:49:00;18.20;99.90
17489;DHT22;8861;52.644;4.734;2023-10-08T09:51:29;18.30;99.90
17489;DHT22;8861;52.644;4.734;2023-10-08T09:54:05;18.30;99.90
17489;DHT22;8861;52.644;4.734;2023-10-08T09:56:39;18.40;99.90
17489;DHT22;8861;52.644;4.734;2023-10-08T09:59:09;18.40;99.90
17489;DHT22;8861;52.644;4.734;2023-10-08T10:01:37;18.50;99.90
17489;DHT22;8861;52.644;4.734;2023-10-08T10:04:09;18.40;99.90
17489;DHT22;8861;52.644;4.734;2023-10-08T10:06:36;18.40;99.90
17489;DHT22;8861;52.644;4.734;2023-10-08T10:09:05;18.40;99.90
17489;DHT22;8861;52.644;4.734;2023-10-08T10:11:45;18.50;99.90
17489;DHT22;8861;52.644;4.734;2023-10-08T10:14:12;18.40;99.90
17489;DHT22;8861;52.644;4.734;2023-10-08T10:16:39;18.30;99.90
17489;DHT22;8861;52.644;4.734;2023-10-08T10:19:19;18.20;99.90
17489;DHT22;8861;52.644;4.734;2023-10-08T10:21:48;18.10;99.90
17489;DHT22;8861;52.644;4.734;2023-10-08T10:24:33;17.90;99.90
17489;DHT22;8861;52.644;4.734;2023-10-08T10:27:20;17.80;99.90
17489;DHT22;8861;52.644;4.734;2023-10-08T10:29:47;17.70;99.90
17489;DHT22;8861;52.644;4.734;2023-10-08T10:32:15;17.70;99.90
17489;DHT22;8861;52.644;4.734;2023-10-08T10:34:44;17.70;99.90
17489;DHT22;8861;52.644;4.734;2023-10-08T10:37:13;17.70;99.90
17489;DHT22;8861;52.644;4.734;2023-10-08T10:39:52;17.70;99.90
17489;DHT22;8861;52.644;4.734;2023-10-08T10:42:21;17.70;99.90
17489;DHT22;8861;52.644;4.734;2023-10-08T10:44:50;17.70;99.90
17489;DHT22;8861;52.644;4.734;2023-10-08T10:47:19;17.80;99.90
17489;DHT22;8861;52.644;4.734;2023-10-08T10:50:09;17.80;99.90
17489;DHT22;8861;52.644;4.734;2023-10-08T10:52:52;17.90;99.90
17489;DHT22;8861;52.644;4.734;2023-10-08T10:55:19;17.80;99.90
17489;DHT22;8861;52.644;4.734;2023-10-08T10:57:57;17.90;99.90
17489;DHT22;8861;52.644;4.734;2023-10-08T11:00:37;17.80;99.90
17489;DHT22;8861;52.644;4.734;2023-10-08T11:03:13;17.90;99.90
17489;DHT22;8861;52.644;4.734;2023-10-08T11:05:46;17.80;99.90
17489;DHT22;8861;52.644;4.734;2023-10-08T11:08:17;18.00;99.90
17489;DHT22;8861;52.644;4.734;2023-10-08T11:10:47;18.30;99.90
17489;DHT22;8861;52.644;4.734;2023-10-08T11:13:17;18.50;99.90
17489;DHT22;8861;52.644;4.734;2023-10-08T11:15:46;18.60;99.90
17489;DHT22;8861;52.644;4.734;2023-10-08T11:18:19;18.70;99.90
17489;DHT22;8861;52.644;4.734;2023-10-08T11:20:49;18.80;99.90
17489;DHT22;8861;52.644;4.734;2023-10-08T11:23:33;18.80;99.90
17489;DHT22;8861;52.644;4.734;2023-10-08T11:26:03;19.00;99.90
17489;DHT22;8861;52.644;4.734;2023-10-08T11:28:31;19.10;99.90
17489;DHT22;8861;52.644;4.734;2023-10-08T11:31:00;19.00;99.90
17489;DHT22;8861;52.644;4.734;2023-10-08T11:33:34;18.90;99.90
17489;DHT22;8861;52.644;4.734;2023-10-08T11:36:05;18.80;99.90
17489;DHT22;8861;52.644;4.734;2023-10-08T11:38:43;18.90;99.90
17489;DHT22;8861;52.644;4.734;2023-10-08T11:41:14;18.80;99.90
17489;DHT22;8861;52.644;4.734;2023-10-08T11:43:51;18.80;99.90
17489;DHT22;8861;52.644;4.734;2023-10-08T11:46:23;18.70;99.90
17489;DHT22;8861;52.644;4.734;2023-10-08T11:48:53;18.70;99.90
17489;DHT22;8861;52.644;4.734;2023-10-08T11:51:24;18.70;99.90
17489;DHT22;8861;52.644;4.734;2023-10-08T11:53:53;18.70;99.90
17489;DHT22;8861;52.644;4.734;2023-10-08T11:56:21;18.70;99.90
17489;DHT22;8861;52.644;4.734;2023-10-08T11:58:49;18.80;99.90
17489;DHT22;8861;52.644;4.734;2023-10-08T12:01:17;18.80;99.90
17489;DHT22;8861;52.644;4.734;2023-10-08T12:03:44;19.00;99.90
17489;DHT22;8861;52.644;4.734;2023-10-08T12:06:12;19.10;99.90
17489;DHT22;8861;52.644;4.734;2023-10-08T12:08:42;19.20;99.90
17489;DHT22;8861;52.644;4.734;2023-10-08T12:11:14;19.30;99.90
17489;DHT22;8861;52.644;4.734;2023-10-08T12:13:42;19.30;99.90
17489;DHT22;8861;52.644;4.734;2023-10-08T12:16:13;19.40;99.90
17489;DHT22;8861;52.644;4.734;2023-10-08T12:18:45;19.50;99.90
17489;DHT22;8861;52.644;4.734;2023-10-08T12:21:15;19.50;99.90
17489;DHT22;8861;52.644;4.734;2023-10-08T12:23:47;19.60;99.90
17489;DHT22;8861;52.644;4.734;2023-10-08T12:26:15;19.60;99.90
17489;DHT22;8861;52.644;4.734;2023-10-08T12:28:45;19.70;99.90
17489;DHT22;8861;52.644;4.734;2023-10-08T12:31:14;19.70;99.90
17489;DHT22;8861;52.644;4.734;2023-10-08T12:33:42;19.70;99.90
17489;DHT22;8861;52.644;4.734;2023-10-08T12:36:11;19.70;99.90
17489;DHT22;8861;52.644;4.734;2023-10-08T12:38:39;19.80;99.90
17489;DHT22;8861;52.644;4.734;2023-10-08T12:41:08;20.00;99.90
17489;DHT22;8861;52.644;4.734;2023-10-08T12:43:39;20.10;99.90
17489;DHT22;8861;52.644;4.734;2023-10-08T12:46:08;20.10;99.90
17489;DHT22;8861;52.644;4.734;2023-10-08T12:48:42;20.00;99.90
17489;DHT22;8861;52.644;4.734;2023-10-08T12:51:13;19.90;99.90
17489;DHT22;8861;52.644;4.734;2023-10-08T12:53:40;19.90;99.90
17489;DHT22;8861;52.644;4.734;2023-10-08T12:56:17;20.00;99.90
17489;DHT22;8861;52.644;4.734;2023-10-08T12:58:47;20.20;99.90
17489;DHT22;8861;52.644;4.734;2023-10-08T13:01:19;20.50;99.90
17489;DHT22;8861;52.644;4.734;2023-10-08T13:03:46;20.90;99.90
17489;DHT22;8861;52.644;4.734;2023-10-08T13:06:16;21.40;99.90
17489;DHT22;8861;52.644;4.734;2023-10-08T13:08:48;21.70;99.90
17489;DHT22;8861;52.644;4.734;2023-10-08T13:11:17;21.70;99.90
17489;DHT22;8861;52.644;4.734;2023-10-08T13:13:49;21.60;99.90
17489;DHT22;8861;52.644;4.734;2023-10-08T13:16:16;21.40;99.90
17489;DHT22;8861;52.644;4.734;2023-10-08T13:18:43;21.10;99.90
17489;DHT22;8861;52.644;4.734;2023-10-08T13:21:10;20.90;99.90
17489;DHT22;8861;52.644;4.734;2023-10-08T13:23:37;20.60;99.90
17489;DHT22;8861;52.644;4.734;2023-10-08T13:26:05;20.50;99.90
17489;DHT22;8861;52.644;4.734;2023-10-08T13:28:34;20.40;99.90
17489;DHT22;8861;52.644;4.734;2023-10-08T13:31:02;20.40;99.90
17489;DHT22;8861;52.644;4.734;2023-10-08T13:33:36;20.50;99.90
17489;DHT22;8861;52.644;4.734;2023-10-08T13:36:05;20.50;99.90
17489;DHT22;8861;52.644;4.734;2023-10-08T13:38:35;20.40;99.90
17489;DHT22;8861;52.644;4.734;2023-10-08T13:41:03;20.20;99.90
17489;DHT22;8861;52.644;4.734;2023-10-08T13:43:34;20.20;99.90
17489;DHT22;8861;52.644;4.734;2023-10-08T13:46:02;20.30;99.90
17489;DHT22;8861;52.644;4.734;2023-10-08T13:48:32;20.50;99.90
17489;DHT22;8861;52.644;4.734;2023-10-08T13:51:00;20.80;99.90
17489;DHT22;8861;52.644;4.734;2023-10-08T13:53:30;21.10;99.90
17489;DHT22;8861;52.644;4.734;2023-10-08T13:55:58;21.20;99.90
17489;DHT22;8861;52.644;4.734;2023-10-08T13:58:27;21.20;99.90
17489;DHT22;8861;52.644;4.734;2023-10-08T14:00:57;20.90;99.90
17489;DHT22;8861;52.644;4.734;2023-10-08T14:03:26;20.70;99.90
17489;DHT22;8861;52.644;4.734;2023-10-08T14:05:57;20.60;99.90
17489;DHT22;8861;52.644;4.734;2023-10-08T14:08:28;20.50;99.90
17489;DHT22;8861;52.644;4.734;2023-10-08T14:10:56;20.50;99.90
17489;DHT22;8861;52.644;4.734;2023-10-08T14:13:29;20.40;99.90
17489;DHT22;8861;52.644;4.734;2023-10-08T14:15:59;20.40;99.90
17489;DHT22;8861;52.644;4.734;2023-10-08T14:18:30;20.40;99.90
17489;DHT22;8861;52.644;4.734;2023-10-08T14:21:06;20.40;99.90
17489;DHT22;8861;52.644;4.734;2023-10-08T14:23:36;20.30;99.90
17489;DHT22;8861;52.644;4.734;2023-10-08T14:26:05;20.30;99.90
17489;DHT22;8861;52.644;4.734;2023-10-08T14:28:33;20.30;99.90
17489;DHT22;8861;52.644;4.734;2023-10-08T14:31:10;20.30;99.90
17489;DHT22;8861;52.644;4.734;2023-10-08T14:33:41;20.20;99.90
17489;DHT22;8861;52.644;4.734;2023-10-08T14:36:09;20.10;99.90
17489;DHT22;8861;52.644;4.734;2023-10-08T14:38:54;20.10;99.90
17489;DHT22;8861;52.644;4.734;2023-10-08T14:41:38;20.00;99.90
17489;DHT22;8861;52.644;4.734;2023-10-08T14:44:22;19.80;99.90
17489;DHT22;8861;52.644;4.734;2023-10-08T14:46:52;19.70;99.90
17489;DHT22;8861;52.644;4.734;2023-10-08T14:49:21;19.70;99.90
17489;DHT22;8861;52.644;4.734;2023-10-08T14:51:49;19.70;99.90
17489;DHT22;8861;52.644;4.734;2023-10-08T14:54:19;19.50;99.90
17489;DHT22;8861;52.644;4.734;2023-10-08T14:56:47;19.40;99.90
17489;DHT22;8861;52.644;4.734;2023-10-08T14:59:14;19.20;99.90
17489;DHT22;8861;52.644;4.734;2023-10-08T15:01:43;19.20;99.90
17489;DHT22;8861;52.644;4.734;2023-10-08T15:04:14;19.20;99.90
17489;DHT22;8861;52.644;4.734;2023-10-08T15:06:42;19.10;99.90
17489;DHT22;8861;52.644;4.734;2023-10-08T15:09:09;19.20;99.90
17489;DHT22;8861;52.644;4.734;2023-10-08T15:11:46;19.20;99.90
17489;DHT22;8861;52.644;4.734;2023-10-08T15:14:13;19.30;99.90
17489;DHT22;8861;52.644;4.734;2023-10-08T15:16:41;19.30;99.90
17489;DHT22;8861;52.644;4.734;2023-10-08T15:19:13;19.30;99.90
17489;DHT22;8861;52.644;4.734;2023-10-08T15:21:41;19.30;99.90
17489;DHT22;8861;52.644;4.734;2023-10-08T15:24:09;19.30;99.90
17489;DHT22;8861;52.644;4.734;2023-10-08T15:26:37;19.20;99.90
17489;DHT22;8861;52.644;4.734;2023-10-08T15:29:05;19.20;99.90
17489;DHT22;8861;52.644;4.734;2023-10-08T15:31:32;19.10;99.90
17489;DHT22;8861;52.644;4.734;2023-10-08T15:33:59;19.00;99.90
17489;DHT22;8861;52.644;4.734;2023-10-08T15:36:31;18.90;99.90
17489;DHT22;8861;52.644;4.734;2023-10-08T15:38:59;18.90;99.90
17489;DHT22;8861;52.644;4.734;2023-10-08T15:41:26;18.80;99.90
17489;DHT22;8861;52.644;4.734;2023-10-08T15:43:53;18.80;99.90
17489;DHT22;8861;52.644;4.734;2023-10-08T15:46:23;18.70;99.90
17489;DHT22;8861;52.644;4.734;2023-10-08T15:48:51;18.70;99.90
17489;DHT22;8861;52.644;4.734;2023-10-08T15:51:18;18.60;99.90
17489;DHT22;8861;52.644;4.734;2023-10-08T15:53:47;18.60;99.90
17489;DHT22;8861;52.644;4.734;2023-10-08T15:56:14;18.50;99.90
17489;DHT22;8861;52.644;4.734;2023-10-08T15:58:41;18.40;99.90
17489;DHT22;8861;52.644;4.734;2023-10-08T16:01:08;18.30;99.90
17489;DHT22;8861;52.644;4.734;2023-10-08T16:03:37;18.20;99.90
17489;DHT22;8861;52.644;4.734;2023-10-08T16:06:04;18.20;99.90
17489;DHT22;8861;52.644;4.734;2023-10-08T16:08:31;18.20;99.90
17489;DHT22;8861;52.644;4.734;2023-10-08T16:10:59;18.10;99.90
17489;DHT22;8861;52.644;4.734;2023-10-08T16:13:26;18.00;99.90